createdAt,value
2023-03-24T00:01:31.883Z,65.11
2023-03-24T00:06:34.794Z,65.52
2023-03-24T00:11:36.737Z,65.19
2023-03-24T00:16:38.398Z,66.42
2023-03-24T00:21:39.094Z,66.28
2023-03-24T00:26:42.265Z,65.82
2023-03-24T00:31:43.235Z,66.79
2023-03-24T00:36:43.996Z,67.04
2023-03-24T00:41:46.470Z,67.40
2023-03-24T00:46:56.366Z,67.15
2023-03-24T00:51:58.263Z,66.52
2023-03-24T00:57:03.196Z,67.29
2023-03-24T01:02:04.011Z,66.75
2023-03-24T01:07:05.654Z,66.69
2023-03-24T01:12:08.621Z,67.46
2023-03-24T01:17:09.943Z,67.19
2023-03-24T01:22:10.565Z,67.50
2023-03-24T01:27:13.332Z,68.49
2023-03-24T01:32:14.352Z,68.27
2023-03-24T01:37:15.075Z,68.53
2023-03-24T01:42:19.890Z,68.10
2023-03-24T01:47:20.622Z,68.62
2023-03-24T01:52:25.698Z,68.39
2023-03-24T01:57:30.914Z,68.34
2023-03-24T02:02:36.439Z,68.77
2023-03-24T02:07:42.284Z,68.26
2023-03-24T02:12:45.205Z,68.25
2023-03-24T02:17:58.067Z,68.64
2023-03-24T02:23:37.511Z,70.01
2023-03-24T02:28:48.539Z,71.10
2023-03-24T02:34:26.235Z,70.81
2023-03-24T02:39:47.919Z,71.78
2023-03-24T02:44:56.864Z,72.53
2023-03-24T02:50:02.174Z,71.87
2023-03-24T02:55:10.908Z,71.59
2023-03-24T03:00:16.812Z,71.21
2023-03-24T03:05:52.166Z,72.07
2023-03-24T03:10:56.778Z,71.27
2023-03-24T03:16:01.692Z,71.25
2023-03-24T03:21:09.885Z,71.26
2023-03-24T03:26:16.591Z,71.94
2023-03-24T03:31:23.730Z,71.90
2023-03-24T03:36:29.534Z,72.71
2023-03-24T03:41:32.561Z,73.78
2023-03-24T03:46:33.717Z,74.76
2023-03-24T03:51:35.415Z,75.51
2023-03-24T03:56:39.243Z,75.66
2023-03-24T04:01:56.275Z,76.34
2023-03-24T04:07:16.572Z,77.63
2023-03-24T04:12:49.825Z,78.38
2023-03-24T04:18:32.096Z,79.46
2023-03-24T04:23:49.896Z,80.66
2023-03-24T04:29:01.245Z,79.88
2023-03-24T04:34:05.250Z,80.43
2023-03-24T04:39:07.039Z,81.15
2023-03-24T04:44:17.633Z,81.24
2023-03-24T04:49:38.937Z,80.75
2023-03-24T04:54:39.635Z,80.49
2023-03-24T04:59:43.116Z,80.76
2023-03-24T05:04:45.013Z,79.99
2023-03-24T05:10:12.570Z,79.15
2023-03-24T05:15:19.951Z,78.93
2023-03-24T05:20:25.739Z,78.96
2023-03-24T05:25:26.396Z,77.98
2023-03-24T05:30:28.482Z,77.06
2023-03-24T05:35:37.849Z,77.81
2023-03-24T05:40:38.737Z,77.03
2023-03-24T05:45:47.535Z,76.12
2023-03-24T05:50:58.597Z,75.97
2023-03-24T05:56:00.728Z,75.24
2023-03-24T06:01:33.468Z,74.30
2023-03-24T06:06:48.264Z,73.69
2023-03-24T06:11:53.056Z,73.78
2023-03-24T06:16:59.200Z,74.83
2023-03-24T06:22:02.894Z,74.47
2023-03-24T06:27:09.029Z,74.31
2023-03-24T06:32:11.767Z,74.29
2023-03-24T06:37:16.549Z,75.39
2023-03-24T06:42:18.574Z,75.50
2023-03-24T06:47:21.110Z,74.99
2023-03-24T06:52:22.193Z,74.63
2023-03-24T06:57:22.984Z,73.36
2023-03-24T07:02:43.416Z,73.31
2023-03-24T07:13:23.083Z,71.22
2023-03-24T07:18:28.622Z,71.16
2023-03-24T07:23:34.715Z,70.62
2023-03-24T07:28:45.286Z,70.87
2023-03-24T07:33:49.056Z,70.39
2023-03-24T07:38:49.742Z,69.20
2023-03-24T07:43:58.094Z,68.79
2023-03-24T07:49:08.677Z,68.32
2023-03-24T07:54:18.329Z,67.64
2023-03-24T07:59:22.214Z,67.05
2023-03-24T08:04:24.347Z,65.90
2023-03-24T08:09:34.061Z,65.12
2023-03-24T08:14:35.296Z,63.22
2023-03-24T08:19:45.388Z,59.79
2023-03-24T08:24:52.988Z,57.98
2023-03-24T08:29:53.637Z,56.05
2023-03-24T08:34:55.662Z,56.63
2023-03-24T08:39:58.792Z,56.25
2023-03-24T08:45:00.600Z,55.47
2023-03-24T08:50:02.586Z,55.54
2023-03-24T08:55:03.924Z,55.57
2023-03-24T09:00:12.045Z,55.59
2023-03-24T09:05:17.300Z,54.94
2023-03-24T09:10:18.722Z,55.64
2023-03-24T09:15:19.675Z,55.27
2023-03-24T09:20:21.826Z,55.55
2023-03-24T09:25:24.816Z,55.50
2023-03-24T09:30:26.066Z,55.23
2023-03-24T09:35:29.012Z,54.84
2023-03-24T09:40:32.285Z,53.88
2023-03-24T09:45:38.243Z,54.66
2023-03-24T09:50:44.414Z,53.80
2023-03-24T09:55:46.185Z,53.17
2023-03-24T10:00:47.684Z,52.66
2023-03-24T10:05:55.404Z,52.22
2023-03-24T10:11:03.018Z,51.66
2023-03-24T10:16:11.421Z,51.87
2023-03-24T10:21:20.897Z,51.43
2023-03-24T10:26:32.920Z,48.88
2023-03-24T10:31:36.028Z,47.61
2023-03-24T10:36:39.372Z,47.99
2023-03-24T10:41:43.825Z,48.40
2023-03-24T10:46:49.076Z,48.07
2023-03-24T10:51:52.521Z,47.50
2023-03-24T10:57:02.621Z,47.10
2023-03-24T11:02:16.913Z,46.86
2023-03-24T11:07:21.591Z,46.45
2023-03-24T11:12:24.345Z,47.49
2023-03-24T11:17:28.306Z,47.66
2023-03-24T11:22:31.325Z,47.88
2023-03-24T11:27:32.567Z,48.85
2023-03-24T11:32:33.538Z,49.35
2023-03-24T11:37:37.787Z,48.25
2023-03-24T11:42:44.137Z,47.83
2023-03-24T11:47:46.716Z,47.14
2023-03-24T11:52:54.125Z,48.16
2023-03-24T11:58:01.090Z,49.74
2023-03-24T12:03:38.084Z,49.13
2023-03-24T12:08:52.872Z,47.74
2023-03-24T12:13:54.005Z,48.35
2023-03-24T12:19:12.062Z,47.34
2023-03-24T12:24:27.602Z,47.58
2023-03-24T12:29:52.013Z,47.30
2023-03-24T12:35:19.123Z,46.51
2023-03-24T12:40:45.811Z,48.55
2023-03-24T12:45:52.655Z,49.28
2023-03-24T12:51:06.942Z,49.71
2023-03-24T12:56:14.189Z,50.12
2023-03-24T13:01:24.755Z,49.68
2023-03-24T13:06:32.414Z,50.43
2023-03-24T13:11:44.422Z,51.36
2023-03-24T13:16:48.630Z,52.23
2023-03-24T13:21:51.807Z,52.75
2023-03-24T13:27:03.526Z,53.83
2023-03-24T13:32:10.480Z,54.31
2023-03-24T13:37:15.119Z,53.80
2023-03-24T13:42:31.749Z,53.68
2023-03-24T13:47:51.363Z,53.45
2023-03-24T13:52:52.328Z,53.99
2023-03-24T13:57:57.812Z,54.54
2023-03-24T14:03:15.434Z,58.00
2023-03-24T14:08:19.187Z,73.94
2023-03-24T14:13:47.893Z,82.33
2023-03-24T14:18:49.329Z,80.35
2023-03-24T14:23:52.593Z,82.66
2023-03-24T14:28:56.360Z,81.16
2023-03-24T14:34:05.872Z,81.92
2023-03-24T14:39:26.319Z,81.65
2023-03-24T14:44:57.188Z,81.12
2023-03-24T14:50:03.945Z,80.69
2023-03-24T14:55:07.761Z,81.29
2023-03-24T15:00:19.657Z,81.12
2023-03-24T15:05:24.957Z,80.76
2023-03-24T15:10:25.760Z,79.06
2023-03-24T15:15:31.663Z,80.68
2023-03-24T15:20:35.848Z,81.36
2023-03-24T15:25:41.972Z,81.91
2023-03-24T15:30:50.528Z,82.76
2023-03-24T15:35:57.103Z,81.18
2023-03-24T15:41:01.028Z,82.72
2023-03-24T15:46:12.450Z,82.05
2023-03-24T15:51:17.209Z,80.82
2023-03-24T15:56:21.726Z,79.30
2023-03-24T16:01:31.076Z,77.88
2023-03-24T16:06:35.248Z,77.36
2023-03-24T16:11:35.996Z,76.93
2023-03-24T16:16:39.541Z,77.64
2023-03-24T16:21:40.481Z,76.28
2023-03-24T16:26:41.134Z,78.40
2023-03-24T16:31:44.175Z,77.62
2023-03-24T16:36:44.803Z,76.95
2023-03-24T16:41:45.902Z,76.45
2023-03-24T16:46:49.260Z,77.07
2023-03-24T16:51:50.123Z,76.87
2023-03-24T16:56:50.932Z,77.78
2023-03-24T17:01:53.682Z,76.36
2023-03-24T17:06:54.974Z,77.00
2023-03-24T17:11:58.430Z,74.07
2023-03-24T17:17:02.857Z,72.80
2023-03-24T17:22:07.050Z,73.86
2023-03-24T17:27:11.659Z,70.85
2023-03-24T17:32:13.709Z,70.47
2023-03-24T17:37:14.351Z,70.80
2023-03-24T17:42:14.975Z,70.21
2023-03-24T17:47:17.141Z,71.12
2023-03-24T17:52:17.853Z,70.13
2023-03-24T17:57:18.911Z,70.52
2023-03-24T18:02:20.857Z,68.64
2023-03-24T18:07:23.036Z,69.25
2023-03-24T18:12:24.685Z,69.63
2023-03-24T18:17:26.707Z,68.10
2023-03-24T18:22:27.711Z,68.83
2023-03-24T18:27:28.441Z,67.90
2023-03-24T18:32:33.017Z,68.94
2023-03-24T18:37:33.737Z,67.74
2023-03-24T18:42:34.452Z,67.82
2023-03-24T18:47:36.566Z,67.55
2023-03-24T18:52:37.276Z,66.67
2023-03-24T18:57:37.947Z,66.07
2023-03-24T19:02:40.544Z,67.01
2023-03-24T19:07:41.283Z,67.80
2023-03-24T19:12:41.923Z,67.66
2023-03-24T19:17:43.890Z,68.94
2023-03-24T19:22:44.563Z,69.26
2023-03-24T19:27:45.503Z,68.65
2023-03-24T19:32:47.694Z,70.26
2023-03-24T19:37:48.435Z,67.56
2023-03-24T19:42:49.263Z,67.69
2023-03-24T19:47:51.289Z,68.05
2023-03-24T19:52:52.048Z,67.02
2023-03-24T19:57:52.740Z,66.76
2023-03-24T20:02:54.779Z,66.16
2023-03-24T20:07:58.482Z,66.78
2023-03-24T20:13:00.457Z,67.37
2023-03-24T20:18:02.746Z,67.78
2023-03-24T20:23:03.439Z,67.42
2023-03-24T20:28:04.176Z,67.41
2023-03-24T20:33:06.450Z,67.98
2023-03-24T20:38:07.138Z,68.07
2023-03-24T20:43:07.787Z,67.51
2023-03-24T20:48:09.734Z,67.78
2023-03-24T20:53:10.375Z,68.59
2023-03-24T20:58:11.288Z,66.94
2023-03-24T21:03:13.347Z,67.54
2023-03-24T21:08:14.064Z,68.24
2023-03-24T21:13:16.761Z,67.41
2023-03-24T21:18:19.298Z,66.75
2023-03-24T21:23:21.558Z,67.44
2023-03-24T21:28:22.202Z,67.91
2023-03-24T21:33:24.288Z,67.18
2023-03-24T21:38:25.443Z,66.83
2023-03-24T21:43:27.090Z,67.93
2023-03-24T21:48:29.206Z,67.54
2023-03-24T21:53:29.918Z,67.98
2023-03-24T21:58:31.523Z,69.55
2023-03-24T22:03:34.568Z,69.02
2023-03-24T22:08:35.307Z,68.91
2023-03-24T22:13:37.100Z,67.85
2023-03-24T22:18:39.082Z,66.65
2023-03-24T22:23:42.392Z,66.79
2023-03-24T22:28:43.451Z,66.54
2023-03-24T22:33:47.518Z,65.68
2023-03-24T22:38:48.205Z,65.53
2023-03-24T22:43:49.264Z,65.53
2023-03-24T22:48:51.582Z,63.27
2023-03-24T22:53:52.477Z,63.30
2023-03-24T22:58:53.206Z,63.47
2023-03-24T23:03:55.376Z,63.10
2023-03-24T23:08:56.958Z,62.03
2023-03-24T23:14:04.334Z,62.65
2023-03-24T23:19:08.498Z,62.88
2023-03-24T23:24:09.402Z,62.76
2023-03-24T23:29:10.172Z,62.68
2023-03-24T23:34:12.867Z,62.51
2023-03-24T23:39:14.536Z,62.48
2023-03-24T23:44:19.570Z,63.25
2023-03-24T23:49:21.605Z,63.52
2023-03-24T23:54:22.293Z,64.01
2023-03-24T23:59:22.931Z,63.54
